Time;durP1;ratioP1;P1;durP2;ratioP2;P2;SDS_P1;SDS_P2;PMS_P1;PMS_P2;Temp;Humidity;BMP_temperature;BMP_pressure;BME280_temperature;BME280_humidity;BME280_pressure;Samples;Min_cycle;Max_cycle;Signal;HPM_P1;HPM_P2
2021/03/20 00:00:16;;;;;;;9.53;4.27;;;0.00;99.90;;;;;;4987941;28;20041;-85
2021/03/20 00:02:42;;;;;;;7.77;4.40;;;0.00;99.90;;;;;;5002741;28;20030;-85
2021/03/20 00:05:08;;;;;;;9.67;4.83;;;-0.10;99.90;;;;;;4981178;28;20033;-86
2021/03/20 00:07:34;;;;;;;9.77;4.53;;;-0.10;99.90;;;;;;4977568;28;20049;-85
2021/03/20 00:10:00;;;;;;;10.37;4.80;;;-0.10;99.90;;;;;;4992173;28;20411;-85
2021/03/20 00:12:26;;;;;;;10.43;4.93;;;-0.10;99.90;;;;;;4983757;28;20034;-85
2021/03/20 00:14:51;;;;;;;10.23;5.30;;;-0.10;99.90;;;;;;5000074;28;20031;-85
2021/03/20 00:17:17;;;;;;;11.17;4.60;;;-0.20;99.90;;;;;;4982984;28;20031;-86
2021/03/20 00:19:43;;;;;;;9.07;4.43;;;-0.20;99.90;;;;;;4983431;28;20364;-85
2021/03/20 00:22:08;;;;;;;10.83;4.23;;;-0.20;99.90;;;;;;5001457;28;20129;-85
2021/03/20 00:24:34;;;;;;;11.37;5.00;;;-0.20;99.90;;;;;;4980679;28;20089;-85
2021/03/20 00:26:59;;;;;;;10.40;4.73;;;-0.20;99.90;;;;;;4998548;28;20042;-86
2021/03/20 00:29:25;;;;;;;11.37;4.80;;;-0.20;99.90;;;;;;4993192;28;20062;-85
2021/03/20 00:31:51;;;;;;;10.53;4.90;;;-0.20;99.90;;;;;;4982321;28;20034;-85
2021/03/20 00:34:16;;;;;;;10.20;4.50;;;-0.20;99.90;;;;;;4983900;28;20034;-85
2021/03/20 00:36:42;;;;;;;8.63;4.60;;;-0.20;99.90;;;;;;4998108;28;20105;-85
2021/03/20 00:39:08;;;;;;;9.17;4.70;;;-0.20;99.90;;;;;;4991402;28;20451;-86
2021/03/20 00:41:35;;;;;;;10.97;4.93;;;-0.20;99.90;;;;;;4981902;28;20034;-85
2021/03/20 00:44:01;;;;;;;8.60;4.40;;;-0.30;99.90;;;;;;4991904;28;20578;-85
2021/03/20 00:46:27;;;;;;;9.10;4.17;;;-0.20;99.90;;;;;;4985709;28;20065;-85
2021/03/20 00:48:52;;;;;;;9.30;4.97;;;-0.30;99.90;;;;;;4999055;28;20109;-85
2021/03/20 00:51:18;;;;;;;10.20;4.83;;;-0.30;99.90;;;;;;4977977;28;20034;-85
2021/03/20 00:53:44;;;;;;;9.10;4.57;;;-0.30;99.90;;;;;;4997177;28;20109;-85
2021/03/20 00:56:09;;;;;;;14.77;5.53;;;-0.30;99.90;;;;;;4987037;28;20030;-85
2021/03/20 00:58:41;;;;;;;9.83;4.87;;;-0.30;99.90;;;;;;4987024;28;20117;-85
2021/03/20 01:01:12;;;;;;;8.23;4.47;;;-0.30;99.90;;;;;;5004393;28;20022;-85
2021/03/20 01:03:39;;;;;;;10.90;5.03;;;-0.30;99.90;;;;;;4988559;28;20026;-86
2021/03/20 01:06:06;;;;;;;11.57;5.43;;;-0.30;99.90;;;;;;4984401;28;20022;-86
2021/03/20 01:08:32;;;;;;;9.47;4.70;;;-0.30;99.90;;;;;;5002374;28;20038;-86
2021/03/20 01:10:58;;;;;;;8.83;4.87;;;-0.30;99.90;;;;;;4985585;28;20034;-86
2021/03/20 01:13:24;;;;;;;11.23;5.10;;;-0.20;99.90;;;;;;4994251;28;20030;-85
2021/03/20 01:15:51;;;;;;;8.83;4.73;;;-0.30;99.90;;;;;;4997897;28;20479;-85
2021/03/20 01:18:17;;;;;;;10.57;4.80;;;-0.20;99.90;;;;;;4987874;28;20018;-85
2021/03/20 01:20:43;;;;;;;10.67;4.50;;;-0.20;99.90;;;;;;5000241;28;20048;-85
2021/03/20 01:23:09;;;;;;;8.87;4.70;;;-0.20;99.90;;;;;;4986875;28;20543;-85
2021/03/20 01:25:35;;;;;;;9.50;4.43;;;-0.10;99.90;;;;;;4996036;28;20037;-85
2021/03/20 01:28:01;;;;;;;9.90;4.37;;;-0.10;99.90;;;;;;5007567;28;20034;-85
2021/03/20 01:30:32;;;;;;;7.87;4.53;;;-0.10;99.90;;;;;;5006500;28;20026;-85
2021/03/20 01:32:59;;;;;;;11.23;4.57;;;-0.10;99.90;;;;;;5000548;28;20041;-86
2021/03/20 01:35:24;;;;;;;10.00;5.10;;;-0.10;99.90;;;;;;5003866;28;20109;-85
2021/03/20 01:37:50;;;;;;;9.73;4.63;;;-0.10;99.90;;;;;;4990267;28;20465;-86
2021/03/20 01:40:31;;;;;;;10.00;5.33;;;-0.10;99.90;;;;;;4982938;28;20021;-85
2021/03/20 01:42:57;;;;;;;10.67;4.97;;;-0.10;99.90;;;;;;4988503;28;20029;-85
2021/03/20 01:45:32;;;;;;;9.13;4.90;;;-0.10;99.90;;;;;;4983955;28;20026;-85
2021/03/20 01:48:24;;;;;;;8.80;4.57;;;-0.10;99.90;;;;;;5003768;28;20517;-85
2021/03/20 01:50:50;;;;;;;;;;;0.00;99.90;;;;;;4995376;28;20038;-86
2021/03/20 01:53:42;;;;;;;9.23;4.57;;;0.00;99.90;;;;;;4990190;28;19912;-87
2021/03/20 01:56:15;;;;;;;8.48;4.72;;;0.00;99.90;;;;;;4984976;28;20106;-86
2021/03/20 01:58:42;;;;;;;12.70;5.30;;;0.00;99.90;;;;;;4971861;28;20031;-87
2021/03/20 02:01:29;;;;;;;8.83;4.83;;;0.00;99.90;;;;;;4987521;28;20026;-86
2021/03/20 02:03:57;;;;;;;9.63;5.23;;;0.00;99.90;;;;;;4976167;28;20121;-86
2021/03/20 02:06:24;;;;;;;12.77;5.53;;;0.00;99.90;;;;;;4984729;28;20022;-87
2021/03/20 02:08:52;;;;;;;8.83;4.80;;;0.00;99.90;;;;;;4983433;28;20048;-86
2021/03/20 02:11:36;;;;;;;13.83;5.67;;;0.00;99.90;;;;;;4984465;28;20084;-88
2021/03/20 02:14:21;;;;;;;11.03;5.70;;;0.00;99.90;;;;;;4984966;28;20030;-86
2021/03/20 02:17:11;;;;;;;11.47;4.90;;;0.00;99.90;;;;;;4978945;28;20022;-87
2021/03/20 02:19:59;;;;;;;9.47;4.83;;;0.00;99.90;;;;;;4974786;28;20027;-85
2021/03/20 02:22:51;;;;;;;10.33;5.00;;;0.00;99.90;;;;;;4991028;28;20026;-85
2021/03/20 02:25:40;;;;;;;9.30;5.13;;;0.00;99.90;;;;;;4984631;28;20019;-86
2021/03/20 02:28:27;;;;;;;10.43;4.77;;;0.00;99.90;;;;;;4971002;28;20023;-85
2021/03/20 02:31:12;;;;;;;9.73;4.80;;;0.00;99.90;;;;;;4986804;28;20025;-85
2021/03/20 02:33:59;;;;;;;11.93;5.57;;;0.10;99.90;;;;;;4993275;28;20022;-85
2021/03/20 02:36:57;;;;;;;10.20;5.00;;;0.10;99.90;;;;;;4979345;28;20030;-85
2021/03/20 02:39:48;;;;;;;11.23;6.00;;;0.10;99.90;;;;;;4971667;28;20018;-85
2021/03/20 02:42:39;;;;;;;9.77;5.27;;;0.00;99.90;;;;;;5004580;28;20030;-85
2021/03/20 02:45:09;;;;;;;12.50;6.20;;;0.10;99.90;;;;;;4974884;28;20030;-85
2021/03/20 02:47:48;;;;;;;11.30;5.23;;;0.00;99.90;;;;;;4987771;28;20046;-85
2021/03/20 02:50:22;;;;;;;13.13;6.13;;;0.00;99.90;;;;;;4984607;28;20404;-85
2021/03/20 02:53:04;;;;;;;10.57;5.37;;;0.10;99.90;;;;;;4975961;28;20037;-85
2021/03/20 02:55:44;;;;;;;7.97;3.97;;;0.00;99.90;;;;;;4999447;28;20435;-85
2021/03/20 02:58:26;;;;;;;11.60;5.60;;;0.00;99.90;;;;;;4983828;28;20038;-85
2021/03/20 03:00:55;;;;;;;11.90;5.93;;;0.00;99.90;;;;;;4983192;28;20449;-86
2021/03/20 03:03:29;;;;;;;11.73;6.53;;;0.00;99.90;;;;;;4978893;28;20025;-86
2021/03/20 03:06:18;;;;;;;13.43;7.00;;;0.00;99.90;;;;;;4979073;28;20418;-85
2021/03/20 03:08:48;;;;;;;11.50;5.80;;;-0.10;99.90;;;;;;4982634;28;20030;-87
2021/03/20 03:11:22;;;;;;;13.00;6.30;;;-0.10;99.90;;;;;;4981546;28;20030;-86
2021/03/20 03:13:54;;;;;;;11.17;6.13;;;-0.10;99.90;;;;;;4982773;28;20057;-86
2021/03/20 03:16:30;;;;;;;13.77;7.13;;;-0.10;99.90;;;;;;4986327;28;20026;-87
2021/03/20 03:19:00;;;;;;;11.93;6.93;;;-0.10;99.90;;;;;;4975035;28;20112;-87
2021/03/20 03:21:29;;;;;;;12.97;6.33;;;-0.10;99.90;;;;;;4987442;28;20033;-87
2021/03/20 03:23:55;;;;;;;10.03;6.23;;;0.00;99.90;;;;;;4979086;28;20029;-87
2021/03/20 03:26:38;;;;;;;11.13;5.73;;;0.00;99.90;;;;;;4973352;28;20034;-87
2021/03/20 03:29:11;;;;;;;12.27;6.43;;;0.00;99.90;;;;;;4975954;28;20033;-87
2021/03/20 03:31:39;;;;;;;13.70;6.27;;;-0.10;99.90;;;;;;4986229;28;20092;-87
2021/03/20 03:34:17;;;;;;;12.23;5.90;;;0.00;99.90;;;;;;4983941;28;20069;-87
2021/03/20 03:36:49;;;;;;;13.87;6.40;;;-0.10;99.90;;;;;;4985438;28;20515;-87
2021/03/20 03:39:48;;;;;;;10.68;6.32;;;-0.10;99.90;;;;;;4979968;28;20026;-86
2021/03/20 03:42:15;;;;;;;11.60;6.57;;;-0.10;99.90;;;;;;4968966;28;20069;-87
2021/03/20 03:44:43;;;;;;;11.93;7.20;;;-0.10;99.90;;;;;;4985619;28;20435;-86
2021/03/20 03:47:11;;;;;;;12.93;7.20;;;-0.20;99.90;;;;;;5000526;28;20041;-87
2021/03/20 03:49:37;;;;;;;13.00;7.23;;;-0.20;99.90;;;;;;4980419;28;20114;-86
2021/03/20 03:52:05;;;;;;;13.17;6.40;;;-0.20;99.90;;;;;;4980230;28;20480;-87
2021/03/20 03:54:33;;;;;;;12.23;7.10;;;-0.20;99.90;;;;;;4973882;28;20510;-87
2021/03/20 03:57:08;;;;;;;14.40;6.90;;;-0.20;99.90;;;;;;4989583;28;20081;-87
2021/03/20 03:59:58;;;;;;;13.03;7.43;;;-0.20;99.90;;;;;;4975960;28;20108;-86
2021/03/20 04:02:48;;;;;;;11.33;6.90;;;-0.20;99.90;;;;;;4993129;28;20522;-86
2021/03/20 04:05:36;;;;;;;12.73;7.20;;;-0.20;99.90;;;;;;4980865;28;20066;-87
2021/03/20 04:08:10;;;;;;;13.57;7.00;;;-0.20;99.90;;;;;;4979336;28;20030;-87
2021/03/20 04:11:10;;;;;;;13.40;7.17;;;-0.20;99.90;;;;;;4982215;28;20125;-87
2021/03/20 04:13:54;;;;;;;13.60;6.90;;;-0.30;99.90;;;;;;4946663;28;20582;-88
2021/03/20 04:16:25;;;;;;;11.20;6.80;;;-0.30;99.90;;;;;;4971457;28;20023;-87
2021/03/20 04:19:00;;;;;;;11.05;6.15;;;-0.20;99.90;;;;;;5001290;28;20033;-87
2021/03/20 04:21:29;;;;;;;11.13;5.90;;;-0.20;99.90;;;;;;4992135;28;20029;-87
2021/03/20 04:24:09;;;;;;;10.80;6.50;;;-0.30;99.90;;;;;;5013619;28;20022;-87
2021/03/20 04:26:41;;;;;;;9.57;5.77;;;-0.30;99.90;;;;;;4995508;28;20042;-86
2021/03/20 04:29:20;;;;;;;11.52;6.72;;;-0.30;99.90;;;;;;4999808;28;20034;-87
2021/03/20 04:32:01;;;;;;;12.47;6.87;;;-0.30;99.90;;;;;;4997389;28;20022;-87
2021/03/20 04:34:36;;;;;;;12.60;6.93;;;-0.30;99.90;;;;;;4992677;28;20514;-87
2021/03/20 04:37:12;;;;;;;11.20;6.17;;;-0.30;99.90;;;;;;4986097;28;20057;-87
2021/03/20 04:39:42;;;;;;;11.13;6.43;;;-0.30;99.90;;;;;;4978635;28;20018;-87
2021/03/20 04:42:08;;;;;;;9.57;6.10;;;-0.30;99.90;;;;;;4988930;28;20022;-86
2021/03/20 04:44:36;;;;;;;9.80;6.00;;;-0.40;99.90;;;;;;5006257;28;20509;-87
2021/03/20 04:47:11;;;;;;;10.93;6.53;;;-0.30;99.90;;;;;;4985111;28;20022;-87
2021/03/20 04:50:04;;;;;;;11.37;6.80;;;-0.30;99.90;;;;;;4985520;28;20061;-88
2021/03/20 04:52:34;;;;;;;;;;;-0.40;99.90;;;;;;4974849;28;20110;-87
2021/03/20 04:55:03;;;;;;;11.47;6.37;;;-0.40;99.90;;;;;;4996664;28;20338;-87
2021/03/20 04:57:38;;;;;;;14.53;6.50;;;-0.40;99.90;;;;;;4995112;28;20054;-87
2021/03/20 05:00:11;;;;;;;12.67;6.63;;;-0.40;99.90;;;;;;4985020;28;20034;-87
2021/03/20 05:02:44;;;;;;;11.75;6.57;;;-0.40;99.90;;;;;;4980512;28;20029;-87
2021/03/20 05:05:28;;;;;;;12.77;6.87;;;-0.40;99.90;;;;;;4995088;28;20069;-88
2021/03/20 05:08:00;;;;;;;13.60;7.00;;;-0.50;99.90;;;;;;4985811;28;20053;-87
2021/03/20 05:10:38;;;;;;;13.43;6.65;;;-0.60;99.90;;;;;;4979936;28;20093;-86
2021/03/20 05:13:10;;;;;;;11.07;6.20;;;-0.60;99.90;;;;;;5002522;28;20034;-86
2021/03/20 05:15:35;;;;;;;11.32;6.00;;;-0.50;99.90;;;;;;4994034;28;20026;-87
2021/03/20 05:18:01;;;;;;;13.17;6.73;;;-0.70;99.90;;;;;;4980035;28;20089;-87
2021/03/20 05:20:27;;;;;;;11.00;6.90;;;-0.60;99.90;;;;;;4990821;28;20080;-87
2021/03/20 05:22:54;;;;;;;12.90;6.07;;;-0.60;99.90;;;;;;4988831;28;20027;-87
2021/03/20 05:25:23;;;;;;;11.13;6.40;;;-0.60;99.90;;;;;;4993069;28;20026;-87
2021/03/20 05:27:49;;;;;;;11.63;6.80;;;-0.60;99.90;;;;;;4981705;28;20425;-87
2021/03/20 05:30:16;;;;;;;11.97;6.50;;;-0.60;99.90;;;;;;4980518;28;20022;-86
2021/03/20 05:32:42;;;;;;;11.17;6.40;;;-0.60;99.90;;;;;;4985524;28;20485;-87
2021/03/20 05:35:12;;;;;;;13.00;6.97;;;-0.60;99.90;;;;;;4987618;28;20050;-87
2021/03/20 05:37:39;;;;;;;12.00;6.27;;;-0.60;99.90;;;;;;4981359;28;20033;-88
2021/03/20 05:40:13;;;;;;;11.50;6.03;;;-0.70;99.90;;;;;;4983969;28;20089;-86
2021/03/20 05:42:39;;;;;;;11.07;6.27;;;-0.70;99.90;;;;;;4992637;28;20025;-86
2021/03/20 05:45:52;;;;;;;10.60;6.20;;;-0.60;99.90;;;;;;4983897;28;20062;-86
2021/03/20 05:48:40;;;;;;;9.93;6.03;;;-0.60;99.90;;;;;;4981917;28;20010;-86
2021/03/20 05:51:43;;;;;;;11.30;6.40;;;-0.50;99.90;;;;;;4956146;28;20082;-86
2021/03/20 05:54:08;;;;;;;;;;;-0.60;99.90;;;;;;4971919;28;20100;-86
2021/03/20 05:57:02;;;;;;;10.10;5.60;;;-0.50;99.90;;;;;;4996745;28;19913;-86
2021/03/20 05:59:41;;;;;;;10.73;5.77;;;-0.50;99.90;;;;;;4982280;28;20129;-86
2021/03/20 06:02:20;;;;;;;9.97;6.33;;;-0.50;99.90;;;;;;4993834;28;20161;-86
2021/03/20 06:05:02;;;;;;;11.30;6.10;;;-0.50;99.90;;;;;;4977955;28;20018;-85
2021/03/20 06:07:53;;;;;;;11.27;6.80;;;-0.60;99.90;;;;;;4977607;28;20026;-86
2021/03/20 06:10:34;;;;;;;13.63;5.80;;;-0.50;99.90;;;;;;4976052;28;20269;-86
2021/03/20 06:13:28;;;;;;;8.87;5.20;;;-0.50;99.90;;;;;;4981112;28;20019;-86
2021/03/20 06:15:59;;;;;;;12.30;6.50;;;-0.50;99.90;;;;;;5001557;28;20105;-86
2021/03/20 06:18:49;;;;;;;9.97;5.47;;;-0.50;99.90;;;;;;4983531;28;20093;-86
2021/03/20 06:21:30;;;;;;;9.50;5.70;;;-0.50;99.90;;;;;;4983995;28;20030;-86
2021/03/20 06:24:44;;;;;;;10.37;5.97;;;-0.40;99.90;;;;;;4982393;28;20043;-87
2021/03/20 06:27:14;;;;;;;9.63;5.70;;;-0.40;99.90;;;;;;4987168;28;20112;-87
2021/03/20 06:30:05;;;;;;;11.00;5.90;;;-0.40;99.90;;;;;;4986784;28;20475;-86
2021/03/20 06:32:37;;;;;;;11.80;5.77;;;-0.30;99.90;;;;;;4962609;28;20499;-86
2021/03/20 06:35:34;;;;;;;9.82;5.70;;;-0.30;99.90;;;;;;4982616;28;20036;-86
2021/03/20 06:38:03;;;;;;;10.23;6.00;;;-0.30;99.90;;;;;;4986340;28;20452;-87
2021/03/20 06:40:28;;;;;;;12.07;7.47;;;-0.30;99.90;;;;;;4999618;28;20433;-86
2021/03/20 06:42:56;;;;;;;10.13;5.97;;;-0.20;99.90;;;;;;4988447;28;20045;-87
2021/03/20 06:45:24;;;;;;;9.53;5.57;;;-0.20;99.90;;;;;;4992797;28;20038;-86
2021/03/20 06:47:56;;;;;;;8.83;5.23;;;-0.20;99.90;;;;;;4986521;28;20029;-86
2021/03/20 06:50:36;;;;;;;10.48;4.95;;;-0.20;99.90;;;;;;4983833;28;20018;-86
2021/03/20 06:53:06;;;;;;;9.57;4.87;;;-0.20;99.90;;;;;;4983226;28;20057;-87
2021/03/20 06:55:37;;;;;;;10.97;5.60;;;-0.20;99.90;;;;;;4977638;28;20022;-86
2021/03/20 06:58:16;;;;;;;9.03;4.77;;;-0.20;99.90;;;;;;4990231;28;20037;-86
2021/03/20 07:00:43;;;;;;;9.60;5.10;;;-0.20;99.90;;;;;;4976030;28;20269;-86
2021/03/20 07:03:24;;;;;;;7.53;4.60;;;-0.20;99.90;;;;;;4991865;28;20034;-86
2021/03/20 07:06:08;;;;;;;7.33;4.53;;;-0.20;99.90;;;;;;4987965;28;20765;-86
2021/03/20 07:08:45;;;;;;;8.23;4.30;;;-0.20;99.90;;;;;;4990480;28;20092;-86
2021/03/20 07:11:33;;;;;;;6.97;3.73;;;-0.20;99.90;;;;;;5004807;28;20090;-87
2021/03/20 07:14:01;;;;;;;7.27;4.27;;;-0.20;99.90;;;;;;4987638;28;20213;-86
2021/03/20 07:16:30;;;;;;;6.93;3.87;;;-0.10;99.90;;;;;;4984744;28;20053;-85
2021/03/20 07:18:59;;;;;;;8.27;3.90;;;-0.10;99.90;;;;;;4980999;28;20042;-86
2021/03/20 07:21:29;;;;;;;7.23;3.20;;;-0.10;99.90;;;;;;4987243;28;20025;-86
2021/03/20 07:24:00;;;;;;;7.43;3.80;;;0.00;99.90;;;;;;4988041;28;20036;-86
2021/03/20 07:26:28;;;;;;;6.30;3.60;;;0.10;99.90;;;;;;4989448;28;20065;-86
2021/03/20 07:29:00;;;;;;;7.03;3.37;;;0.10;99.90;;;;;;4982386;28;20022;-87
2021/03/20 07:31:28;;;;;;;7.17;3.20;;;0.20;99.90;;;;;;5006664;28;20026;-85
2021/03/20 07:33:55;;;;;;;7.67;3.73;;;0.30;99.90;;;;;;4994602;28;20014;-86
2021/03/20 07:36:31;;;;;;;5.93;3.50;;;0.30;99.90;;;;;;4994142;28;20490;-85
2021/03/20 07:39:20;;;;;;;7.73;3.30;;;0.40;99.90;;;;;;4992987;28;20026;-86
2021/03/20 07:41:59;;;;;;;7.20;3.03;;;0.40;99.90;;;;;;4985830;28;20021;-85
2021/03/20 07:44:27;;;;;;;6.70;2.87;;;0.40;99.90;;;;;;4989376;28;20030;-86
2021/03/20 07:46:55;;;;;;;5.93;3.20;;;0.30;99.90;;;;;;4976366;28;20038;-86
2021/03/20 07:49:33;;;;;;;6.43;3.20;;;0.40;99.90;;;;;;4981380;28;20021;-86
2021/03/20 07:52:19;;;;;;;5.87;3.10;;;0.40;99.90;;;;;;4985069;28;20026;-86
2021/03/20 07:54:45;;;;;;;6.63;3.60;;;0.50;99.90;;;;;;4991067;28;20035;-86
2021/03/20 07:57:18;;;;;;;9.43;3.33;;;0.40;99.90;;;;;;4988507;28;20030;-86
2021/03/20 07:59:50;;;;;;;7.47;3.43;;;0.40;99.90;;;;;;4976750;28;20472;-85
2021/03/20 08:02:40;;;;;;;6.30;3.10;;;0.50;99.90;;;;;;4991426;28;20058;-86
2021/03/20 08:05:06;;;;;;;7.20;3.23;;;0.60;99.90;;;;;;4982619;28;20037;-86
2021/03/20 08:07:47;;;;;;;5.70;2.90;;;0.60;99.90;;;;;;4985153;28;20030;-86
2021/03/20 08:10:16;;;;;;;5.97;3.03;;;0.60;99.90;;;;;;4989037;28;20044;-86
2021/03/20 08:12:54;;;;;;;8.43;3.33;;;0.50;99.90;;;;;;4975842;28;20495;-86
2021/03/20 08:15:26;;;;;;;5.77;3.20;;;0.50;99.90;;;;;;4990931;28;20033;-86
2021/03/20 08:17:51;;;;;;;5.82;3.20;;;0.40;99.90;;;;;;4984097;28;20022;-86
2021/03/20 08:20:18;;;;;;;9.77;3.30;;;0.40;99.90;;;;;;4986791;28;20375;-86
2021/03/20 08:22:51;;;;;;;6.23;2.50;;;0.50;99.90;;;;;;4984074;28;20387;-85
2021/03/20 08:25:26;;;;;;;5.87;2.60;;;0.50;99.90;;;;;;5003105;28;20124;-86
2021/03/20 08:28:10;;;;;;;7.30;2.77;;;0.40;99.90;;;;;;4992088;28;20106;-86
2021/03/20 08:30:58;;;;;;;6.23;2.73;;;0.40;99.90;;;;;;4994854;28;20029;-86
2021/03/20 08:33:54;;;;;;;5.97;3.13;;;0.40;99.90;;;;;;4980892;28;20030;-86
2021/03/20 08:36:38;;;;;;;5.47;2.53;;;0.50;99.90;;;;;;4976372;28;20022;-86
2021/03/20 08:39:30;;;;;;;7.93;3.10;;;0.40;99.90;;;;;;4991777;28;20026;-86
2021/03/20 08:42:29;;;;;;;8.02;3.50;;;0.40;99.90;;;;;;4965760;28;20037;-86
2021/03/20 08:45:20;;;;;;;5.97;2.67;;;0.40;99.90;;;;;;4977493;28;20484;-86
2021/03/20 08:47:52;;;;;;;5.40;2.67;;;0.40;99.90;;;;;;4970563;28;20026;-86
2021/03/20 08:50:39;;;;;;;5.87;2.23;;;0.40;99.90;;;;;;4991442;28;20080;-86
2021/03/20 08:53:32;;;;;;;6.47;2.80;;;0.30;99.90;;;;;;4988568;28;20116;-86
2021/03/20 08:56:03;;;;;;;4.60;1.83;;;0.40;99.90;;;;;;4974900;28;20060;-87
2021/03/20 08:58:58;;;;;;;4.45;2.15;;;0.50;99.90;;;;;;4989995;28;20023;-85
2021/03/20 09:01:38;;;;;;;8.73;2.33;;;0.60;99.90;;;;;;4985372;28;20026;-86
2021/03/20 09:04:09;;;;;;;7.27;2.57;;;0.70;99.90;;;;;;4976305;28;20137;-85
2021/03/20 09:06:42;;;;;;;6.53;2.63;;;0.70;99.90;;;;;;4976889;28;20026;-86
2021/03/20 09:09:11;;;;;;;6.77;2.60;;;0.60;99.90;;;;;;4994661;28;20021;-85
2021/03/20 09:11:49;;;;;;;10.70;4.20;;;0.90;99.90;;;;;;4994664;28;20074;-86
2021/03/20 09:14:21;;;;;;;12.87;4.60;;;0.90;99.00;;;;;;4982197;28;20082;-84
2021/03/20 09:16:54;;;;;;;8.75;3.90;;;1.20;99.50;;;;;;4984409;28;20058;-86
2021/03/20 09:19:40;;;;;;;26.67;3.80;;;1.50;93.90;;;;;;4986095;28;20030;-85
2021/03/20 09:22:13;;;;;;;6.50;2.03;;;1.90;92.10;;;;;;4980147;28;20031;-85
2021/03/20 09:24:57;;;;;;;3.63;1.60;;;1.90;85.30;;;;;;4975609;28;20026;-85
2021/03/20 09:28:01;;;;;;;3.37;1.77;;;2.10;85.00;;;;;;4989391;28;20018;-86
2021/03/20 09:30:38;;;;;;;5.10;1.70;;;2.20;78.90;;;;;;4994136;28;20027;-85
2021/03/20 09:33:19;;;;;;;7.70;2.07;;;2.30;78.50;;;;;;4976974;28;20014;-85
2021/03/20 09:35:50;;;;;;;8.93;2.10;;;2.40;81.60;;;;;;4994080;28;20179;-85
2021/03/20 09:38:35;;;;;;;4.60;1.97;;;2.70;91.10;;;;;;4982865;28;20037;-86
2021/03/20 09:41:13;;;;;;;7.57;2.10;;;2.80;81.80;;;;;;4990913;28;20069;-84
2021/03/20 09:44:02;;;;;;;3.87;1.57;;;3.00;81.20;;;;;;4983945;28;20022;-85
2021/03/20 09:46:40;;;;;;;4.20;1.50;;;3.20;75.70;;;;;;4982298;28;20026;-85
2021/03/20 09:49:11;;;;;;;6.73;1.73;;;3.10;68.30;;;;;;4998920;28;20431;-86
2021/03/20 09:51:54;;;;;;;4.88;1.90;;;3.30;67.60;;;;;;4988023;28;20030;-85
2021/03/20 09:54:29;;;;;;;6.38;1.85;;;3.30;72.50;;;;;;5005771;28;20033;-85
2021/03/20 09:56:58;;;;;;;4.57;1.77;;;3.30;74.90;;;;;;4984406;28;20030;-85
2021/03/20 09:59:31;;;;;;;4.97;2.40;;;3.40;72.70;;;;;;4993780;28;20045;-86
2021/03/20 10:02:02;;;;;;;3.90;1.83;;;3.10;70.90;;;;;;4997645;28;20102;-86
2021/03/20 10:04:59;;;;;;;4.67;2.13;;;3.10;72.70;;;;;;4985470;28;20038;-85
2021/03/20 10:07:25;;;;;;;7.23;3.10;;;2.80;75.60;;;;;;4988110;28;20073;-85
2021/03/20 10:10:13;;;;;;;6.50;2.30;;;2.30;75.80;;;;;;4990163;28;20105;-85
2021/03/20 10:12:45;;;;;;;5.67;2.10;;;2.30;74.80;;;;;;4982323;28;20049;-85
2021/03/20 10:15:17;;;;;;;5.75;1.70;;;2.50;73.40;;;;;;4981077;28;20023;-86
2021/03/20 10:18:08;;;;;;;4.20;1.75;;;2.60;74.60;;;;;;4983712;28;20084;-85
2021/03/20 10:21:18;;;;;;;5.90;2.00;;;3.00;73.30;;;;;;4996464;28;20495;-85
2021/03/20 10:24:16;;;;;;;6.27;1.83;;;3.10;70.80;;;;;;4941279;29;20023;-85
2021/03/20 10:26:49;;;;;;;6.50;1.60;;;3.30;68.00;;;;;;4955508;28;20119;-85
2021/03/20 10:29:18;;;;;;;4.00;1.70;;;3.30;65.40;;;;;;4968364;28;21062;-85
2021/03/20 10:31:47;;;;;;;3.37;1.30;;;3.20;67.50;;;;;;4980357;28;20022;-85
2021/03/20 10:34:17;;;;;;;6.47;1.50;;;2.80;66.70;;;;;;4974158;28;20034;-86
2021/03/20 10:36:49;;;;;;;5.57;1.57;;;2.70;66.30;;;;;;5001854;28;20084;-85
2021/03/20 10:39:28;;;;;;;3.28;1.48;;;2.80;62.50;;;;;;4983462;28;20128;-85
2021/03/20 10:41:59;;;;;;;3.13;1.40;;;2.90;61.20;;;;;;4985525;28;20022;-85
2021/03/20 10:44:30;;;;;;;3.73;1.30;;;3.10;59.50;;;;;;4971180;28;20037;-85
2021/03/20 10:47:04;;;;;;;3.90;1.30;;;3.20;62.90;;;;;;4988818;28;20034;-85
2021/03/20 10:49:36;;;;;;;2.63;1.13;;;3.60;62.80;;;;;;4991478;28;20032;-84
2021/03/20 10:52:02;;;;;;;5.75;1.60;;;3.80;59.60;;;;;;4974428;28;20022;-85
2021/03/20 10:54:36;;;;;;;4.60;1.73;;;4.00;57.80;;;;;;4975306;28;20113;-85
2021/03/20 10:57:09;;;;;;;4.57;1.80;;;4.20;60.80;;;;;;4978898;28;20031;-85
2021/03/20 10:59:38;;;;;;;6.60;1.80;;;4.30;59.40;;;;;;4991487;28;20035;-85
2021/03/20 11:02:30;;;;;;;3.43;1.40;;;4.10;58.10;;;;;;4977603;28;20434;-85
2021/03/20 11:05:30;;;;;;;4.07;1.70;;;3.80;61.30;;;;;;4981548;28;20114;-85
2021/03/20 11:08:01;;;;;;;3.87;1.20;;;4.00;60.20;;;;;;4980529;28;20081;-85
2021/03/20 11:10:34;;;;;;;3.30;1.50;;;3.80;57.20;;;;;;4981677;28;20030;-86
2021/03/20 11:13:09;;;;;;;3.33;1.33;;;3.90;60.20;;;;;;4984031;28;20022;-85
2021/03/20 11:15:37;;;;;;;4.27;1.57;;;3.90;55.90;;;;;;4992224;28;20451;-85
2021/03/20 11:18:16;;;;;;;3.70;1.47;;;4.00;55.90;;;;;;4972708;28;20037;-86
2021/03/20 11:20:45;;;;;;;3.03;1.20;;;4.10;57.90;;;;;;4974690;28;20047;-85
2021/03/20 11:23:32;;;;;;;3.73;1.40;;;4.20;52.50;;;;;;5001244;28;20054;-86
2021/03/20 11:26:31;;;;;;;8.23;1.93;;;4.20;55.10;;;;;;4985893;28;20451;-86
2021/03/20 11:29:00;;;;;;;4.60;1.40;;;4.20;54.90;;;;;;4985866;28;20052;-85
2021/03/20 11:31:27;;;;;;;4.27;1.50;;;4.40;57.70;;;;;;5000505;28;20022;-86
2021/03/20 11:33:54;;;;;;;5.90;1.50;;;4.60;54.60;;;;;;4974446;28;20110;-85
2021/03/20 11:36:23;;;;;;;3.03;1.37;;;4.50;54.10;;;;;;4991666;28;20522;-85
2021/03/20 11:38:50;;;;;;;4.33;1.40;;;4.70;53.80;;;;;;4976455;28;20444;-85
2021/03/20 11:41:35;;;;;;;4.47;1.80;;;4.40;52.30;;;;;;4975607;28;20036;-86
2021/03/20 11:44:14;;;;;;;3.57;1.47;;;4.50;52.90;;;;;;4985587;28;20022;-88
2021/03/20 11:46:49;;;;;;;5.27;1.57;;;4.60;50.90;;;;;;4973776;28;20045;-85
2021/03/20 11:49:42;;;;;;;3.73;1.67;;;4.60;54.10;;;;;;4981893;28;20029;-87
2021/03/20 11:52:20;;;;;;;5.77;1.70;;;4.70;53.80;;;;;;4996320;28;20498;-85
2021/03/20 11:55:06;;;;;;;4.37;1.57;;;4.80;55.40;;;;;;4971805;28;20050;-88
2021/03/20 11:57:40;;;;;;;5.40;1.90;;;4.90;56.50;;;;;;4980107;28;20042;-86
2021/03/20 12:00:30;;;;;;;4.57;1.77;;;5.00;53.80;;;;;;4974159;28;20030;-85
2021/03/20 12:03:00;;;;;;;4.10;1.60;;;5.30;55.00;;;;;;4971717;28;20038;-85
2021/03/20 12:05:36;;;;;;;5.57;2.00;;;5.40;53.90;;;;;;4989636;28;20455;-85
2021/03/20 12:08:26;;;;;;;3.53;1.77;;;5.50;55.40;;;;;;4978205;28;20430;-85
2021/03/20 12:10:58;;;;;;;4.67;1.90;;;5.60;53.00;;;;;;4977323;28;20110;-85
2021/03/20 12:13:43;;;;;;;4.10;1.40;;;5.50;51.90;;;;;;4983379;28;20080;-85
2021/03/20 12:16:25;;;;;;;6.70;2.40;;;5.40;51.40;;;;;;4980431;28;20034;-86
2021/03/20 12:19:19;;;;;;;3.75;2.00;;;5.40;51.20;;;;;;4993560;28;20026;-85
2021/03/20 12:22:08;;;;;;;6.40;2.53;;;5.40;53.40;;;;;;4982370;28;20407;-85
2021/03/20 12:24:48;;;;;;;5.77;2.20;;;5.30;55.60;;;;;;4966112;28;20042;-86
2021/03/20 12:27:30;;;;;;;9.00;4.50;;;5.40;56.50;;;;;;4979686;28;20042;-85
2021/03/20 12:30:04;;;;;;;7.67;3.20;;;5.20;56.80;;;;;;4995674;28;20027;-86
2021/03/20 12:32:44;;;;;;;4.80;2.70;;;4.90;57.50;;;;;;4973845;28;20616;-86
2021/03/20 12:35:26;;;;;;;4.97;2.63;;;5.00;57.40;;;;;;4986751;28;20022;-85
2021/03/20 12:38:13;;;;;;;5.25;2.45;;;4.90;56.00;;;;;;4974910;28;20169;-85
2021/03/20 12:40:52;;;;;;;3.97;2.07;;;5.10;56.80;;;;;;4977991;28;20105;-85
2021/03/20 12:43:33;;;;;;;3.60;2.10;;;5.30;55.10;;;;;;4993270;28;20041;-90
2021/03/20 12:46:04;;;;;;;6.17;2.20;;;5.50;57.10;;;;;;4962239;28;20034;-85
2021/03/20 12:48:36;;;;;;;4.55;2.72;;;5.80;55.40;;;;;;4989780;28;20022;-85
2021/03/20 12:51:11;;;;;;;5.50;2.40;;;6.00;53.40;;;;;;4973600;28;20022;-86
2021/03/20 12:53:38;;;;;;;4.30;2.30;;;5.90;52.50;;;;;;4972557;28;20018;-86
2021/03/20 12:56:05;;;;;;;4.20;2.20;;;5.70;54.70;;;;;;4978078;28;20811;-85
2021/03/20 12:58:30;;;;;;;4.67;2.43;;;5.60;54.80;;;;;;4978642;28;20030;-85
2021/03/20 13:00:57;;;;;;;4.93;2.07;;;5.70;56.40;;;;;;4992572;28;20043;-87
2021/03/20 13:03:23;;;;;;;4.13;2.10;;;5.80;53.10;;;;;;4973686;28;20053;-89
2021/03/20 13:05:49;;;;;;;4.97;2.50;;;5.80;55.10;;;;;;4985607;28;20422;-86
2021/03/20 13:08:14;;;;;;;4.70;2.20;;;5.90;53.70;;;;;;4980471;28;20072;-86
2021/03/20 13:10:41;;;;;;;12.50;2.57;;;5.50;54.00;;;;;;4999754;28;20034;-86
2021/03/20 13:13:09;;;;;;;4.27;2.17;;;5.60;56.90;;;;;;4976930;28;20077;-86
2021/03/20 13:15:35;;;;;;;4.97;2.17;;;5.80;55.10;;;;;;4979296;28;20030;-86
2021/03/20 13:18:01;;;;;;;3.80;1.90;;;6.00;54.30;;;;;;4993232;28;20057;-86
2021/03/20 13:20:29;;;;;;;4.37;2.10;;;6.10;53.60;;;;;;4981840;28;20053;-86
2021/03/20 13:22:54;;;;;;;4.60;2.50;;;6.40;52.90;;;;;;4977247;28;20053;-86
2021/03/20 13:25:30;;;;;;;4.50;2.00;;;6.20;53.50;;;;;;4981893;28;20487;-86
2021/03/20 13:27:57;;;;;;;4.70;2.53;;;6.20;53.20;;;;;;4991228;28;20407;-86
2021/03/20 13:30:29;;;;;;;3.73;2.30;;;6.30;54.00;;;;;;4980112;28;20046;-86
2021/03/20 13:32:57;;;;;;;4.57;2.20;;;6.30;52.10;;;;;;4979694;28;20222;-86